Time;durP1;ratioP1;P1;durP2;ratioP2;P2;SDS_P1;SDS_P2;PMS_P1;PMS_P2;Temp;Humidity;BMP_temperature;BMP_pressure;BME280_temperature;BME280_humidity;BME280_pressure;Samples;Min_cycle;Max_cycle;Signal;HPM_P1;HPM_P2
2023/08/07 00:03:33;;;;;;;0.10;0.10;;;;;;;20.29;100.00;101086.47;10521144;28;20055;-78
2023/08/07 00:08:36;;;;;;;0.00;0.00;;;;;;;19.81;100.00;101086.94;10505623;28;20455;-77
2023/08/07 00:13:38;;;;;;;0.00;0.00;;;;;;;20.49;100.00;101083.59;10515005;28;20054;-77
2023/08/07 00:18:39;;;;;;;0.25;0.10;;;;;;;20.22;100.00;101077.81;10503741;28;20505;-77
2023/08/07 00:23:41;;;;;;;0.00;0.00;;;;;;;20.14;100.00;101079.66;10520724;28;20138;-77
2023/08/07 00:28:43;;;;;;;0.00;0.00;;;;;;;19.86;100.00;101074.72;10520492;28;20047;-77
2023/08/07 00:33:45;;;;;;;0.00;0.00;;;;;;;19.43;100.00;101077.69;10520611;28;20048;-77
2023/08/07 00:38:47;;;;;;;0.00;0.00;;;;;;;19.75;100.00;101076.53;10520492;28;20040;-78
2023/08/07 00:43:49;;;;;;;0.00;0.00;;;;;;;19.82;100.00;101083.44;10482237;28;20044;-77
2023/08/07 00:48:53;;;;;;;0.00;0.00;;;;;;;19.66;100.00;101080.97;10520003;28;20478;-78
2023/08/07 00:53:54;;;;;;;0.05;0.05;;;;;;;19.46;100.00;101075.91;10503597;28;20047;-78
2023/08/07 00:58:58;;;;;;;0.13;0.13;;;;;;;19.70;100.00;101083.53;10520047;28;20068;-78
2023/08/07 01:04:00;;;;;;;0.05;0.00;;;;;;;19.96;100.00;101083.31;10520155;28;20048;-78
2023/08/07 01:09:02;;;;;;;0.00;0.00;;;;;;;20.13;100.00;101088.41;10520365;28;20043;-78
2023/08/07 01:14:23;;;;;;;0.00;0.00;;;;;;;20.37;100.00;101089.84;10528311;28;20075;-79
2023/08/07 01:19:27;;;;;;;0.00;0.00;;;;;;;20.10;100.00;101101.50;10507769;28;20044;-77
2023/08/07 01:24:29;;;;;;;0.00;0.00;;;;;;;19.96;100.00;101096.38;10511084;28;20044;-78
2023/08/07 01:29:38;;;;;;;0.00;0.00;;;;;;;19.50;100.00;101100.25;10509903;28;20040;-77
2023/08/07 01:34:42;;;;;;;0.00;0.00;;;;;;;19.91;100.00;101114.75;10524250;28;20048;-78
2023/08/07 01:39:44;;;;;;;0.38;0.20;;;;;;;19.69;100.00;101118.44;10511609;28;20043;-79
2023/08/07 01:44:46;;;;;;;0.00;0.00;;;;;;;19.49;100.00;101122.03;10527447;28;20091;-78
2023/08/07 01:49:48;;;;;;;0.00;0.00;;;;;;;19.75;100.00;101098.31;10510872;28;20048;-79
2023/08/07 01:54:50;;;;;;;0.00;0.00;;;;;;;19.45;100.00;101107.28;10511162;28;20047;-78
2023/08/07 01:59:52;;;;;;;0.20;0.10;;;;;;;19.79;100.00;101102.66;10527404;28;20130;-79
2023/08/07 02:04:53;;;;;;;0.00;0.00;;;;;;;19.73;100.00;101109.66;10510705;28;20044;-80
2023/08/07 02:09:55;;;;;;;0.00;0.00;;;;;;;19.60;100.00;101115.00;10485560;28;20072;-80
2023/08/07 02:14:56;;;;;;;0.00;0.00;;;;;;;19.72;100.00;101129.72;10530385;28;20410;-79
2023/08/07 02:19:58;;;;;;;0.00;0.00;;;;;;;18.63;100.00;101136.44;10525737;28;20055;-79
2023/08/07 02:25:00;;;;;;;0.10;0.00;;;;;;;19.23;100.00;101138.78;10509862;28;20040;-78
2023/08/07 02:30:03;;;;;;;1.75;0.65;;;;;;;19.69;100.00;101147.19;10504001;28;20036;-79
2023/08/07 02:35:05;;;;;;;0.00;0.00;;;;;;;19.20;100.00;101151.84;10526550;28;20410;-78
2023/08/07 02:40:07;;;;;;;0.00;0.00;;;;;;;19.55;100.00;101142.91;10506925;28;20072;-79
2023/08/07 02:45:09;;;;;;;0.10;0.10;;;;;;;19.51;100.00;101146.44;10518397;28;20131;-78
2023/08/07 02:50:11;;;;;;;0.00;0.00;;;;;;;19.97;100.00;101139.97;10542385;28;20077;-79
2023/08/07 02:55:13;;;;;;;9.55;0.55;;;;;;;19.26;100.00;101141.34;10525437;28;20052;-78
2023/08/07 03:00:15;;;;;;;3.20;0.20;;;;;;;19.85;100.00;101146.16;10508381;28;20430;-79
2023/08/07 03:05:16;;;;;;;0.00;0.00;;;;;;;19.66;100.00;101150.66;10508665;28;20148;-79
2023/08/07 03:10:19;;;;;;;0.55;0.20;;;;;;;19.39;100.00;101146.53;10504732;28;20041;-79
2023/08/07 03:15:20;;;;;;;0.00;0.00;;;;;;;19.53;100.00;101142.06;10522879;28;20048;-78
2023/08/07 03:20:22;;;;;;;0.10;0.10;;;;;;;19.56;100.00;101149.00;10523072;28;20036;-78
2023/08/07 03:25:24;;;;;;;0.00;0.00;;;;;;;19.13;100.00;101150.16;10508155;28;20047;-77
2023/08/07 03:30:25;;;;;;;0.00;0.00;;;;;;;19.50;100.00;101134.22;10505300;28;20036;-78
2023/08/07 03:35:27;;;;;;;0.00;0.00;;;;;;;18.91;100.00;101136.34;10506931;28;20487;-78
2023/08/07 03:40:29;;;;;;;0.10;0.10;;;;;;;19.34;100.00;101134.34;10510511;28;20100;-78
2023/08/07 03:45:31;;;;;;;0.63;0.63;;;;;;;19.70;100.00;101127.97;10519203;28;20047;-77
2023/08/07 03:50:36;;;;;;;0.00;0.00;;;;;;;19.18;100.00;101127.47;10505315;28;20099;-79
2023/08/07 03:55:39;;;;;;;0.00;0.00;;;;;;;19.37;100.00;101116.94;10522719;28;20180;-78
2023/08/07 04:00:41;;;;;;;0.08;0.08;;;;;;;19.32;100.00;101115.19;10522447;28;20043;-78
2023/08/07 04:05:42;;;;;;;0.00;0.00;;;;;;;19.13;100.00;101113.59;10521674;28;20514;-78
2023/08/07 04:10:44;;;;;;;0.00;0.00;;;;;;;19.16;100.00;101111.81;10521501;28;20054;-78
2023/08/07 04:15:46;;;;;;;0.22;0.10;;;;;;;18.96;100.00;101106.72;10528114;28;20072;-78
2023/08/07 04:20:55;;;;;;;0.10;0.10;;;;;;;19.31;100.00;101113.47;10521009;28;20131;-78
2023/08/07 04:25:57;;;;;;;0.03;0.03;;;;;;;19.36;100.00;101104.72;10521184;28;20048;-78
2023/08/07 04:30:58;;;;;;;0.00;0.00;;;;;;;19.19;100.00;101118.78;10522640;28;20040;-77
2023/08/07 04:36:00;;;;;;;0.03;0.03;;;;;;;19.10;100.00;101119.72;10504520;28;20093;-77
2023/08/07 04:41:03;;;;;;;6.80;0.35;;;;;;;19.00;100.00;101128.47;10520641;28;20407;-79
2023/08/07 04:46:05;;;;;;;0.00;0.00;;;;;;;19.32;100.00;101128.25;10504106;28;20043;-77
2023/08/07 04:51:06;;;;;;;0.20;0.20;;;;;;;19.15;100.00;101137.97;10503809;28;20055;-77
2023/08/07 04:56:08;;;;;;;0.20;0.10;;;;;;;19.53;100.00;101129.00;10503170;28;20074;-78
2023/08/07 05:01:09;;;;;;;0.60;0.20;;;;;;;19.39;100.00;101143.91;10515575;28;20043;-78
2023/08/07 05:06:11;;;;;;;0.00;0.00;;;;;;;19.55;100.00;101153.34;10519485;28;20048;-78
2023/08/07 05:11:13;;;;;;;0.00;0.00;;;;;;;19.65;100.00;101160.25;10519170;28;20399;-77
2023/08/07 05:16:14;;;;;;;0.00;0.00;;;;;;;19.94;100.00;101167.00;10515934;28;20054;-78
2023/08/07 05:21:16;;;;;;;2.20;0.35;;;;;;;20.06;100.00;101173.88;10517042;28;20075;-77
2023/08/07 05:26:18;;;;;;;0.00;0.00;;;;;;;20.68;100.00;101169.75;10484217;28;20052;-80
2023/08/07 05:31:20;;;;;;;0.82;0.47;;;;;;;20.03;100.00;101171.28;10501522;28;20040;-78
2023/08/07 05:36:22;;;;;;;1.48;0.10;;;;;;;20.36;100.00;101173.63;10502595;28;20445;-79
2023/08/07 05:41:23;;;;;;;0.00;0.00;;;;;;;20.79;100.00;101188.84;10518412;28;20406;-79
2023/08/07 05:46:25;;;;;;;0.63;0.22;;;;;;;20.47;100.00;101179.59;10519571;28;20050;-78
2023/08/07 05:51:27;;;;;;;0.10;0.03;;;;;;;20.23;100.00;101185.94;10497415;28;20127;-79
2023/08/07 05:56:29;;;;;;;0.00;0.00;;;;;;;20.20;100.00;101199.94;10541484;28;20048;-78
2023/08/07 06:01:31;;;;;;;0.00;0.00;;;;;;;20.30;100.00;101203.31;10518135;28;20040;-79
2023/08/07 06:06:35;;;;;;;0.63;0.35;;;;;;;20.28;100.00;101203.34;10505918;28;20109;-79
2023/08/07 06:11:37;;;;;;;0.00;0.00;;;;;;;21.02;100.00;101206.03;10509546;28;20475;-79
2023/08/07 06:16:39;;;;;;;0.00;0.00;;;;;;;20.41;100.00;101213.66;10525533;28;20573;-78
2023/08/07 06:21:41;;;;;;;0.20;0.10;;;;;;;21.04;100.00;101222.56;10524715;28;20557;-78
2023/08/07 06:26:42;;;;;;;0.00;0.00;;;;;;;20.05;100.00;101236.69;10512639;28;20050;-80
2023/08/07 06:31:44;;;;;;;0.03;0.03;;;;;;;20.75;100.00;101232.53;10547706;28;20044;-80
2023/08/07 06:36:46;;;;;;;0.10;0.10;;;;;;;20.73;100.00;101246.53;10525521;28;20119;-81
2023/08/07 06:41:48;;;;;;;1.58;0.30;;;;;;;20.70;100.00;101255.22;10508194;28;20048;-80
2023/08/07 06:46:53;;;;;;;0.25;0.00;;;;;;;20.96;100.00;101255.88;10514242;28;20032;-80
2023/08/07 06:51:55;;;;;;;0.00;0.00;;;;;;;21.36;100.00;101263.22;10523983;28;20552;-81
2023/08/07 06:56:57;;;;;;;0.60;0.17;;;;;;;20.60;100.00;101277.16;10506693;28;20040;-79
2023/08/07 07:01:59;;;;;;;1.25;0.57;;;;;;;20.37;100.00;101279.97;10522989;28;20033;-79
2023/08/07 07:07:01;;;;;;;4.45;2.65;;;;;;;20.83;100.00;101297.91;10506743;28;20044;-79
2023/08/07 07:12:03;;;;;;;0.08;0.08;;;;;;;20.76;100.00;101294.50;10506247;28;20047;-79
2023/08/07 07:17:18;;;;;;;0.00;0.00;;;;;;;20.49;100.00;101310.41;10515580;28;20044;-83
2023/08/07 07:22:19;;;;;;;0.00;0.00;;;;;;;20.29;100.00;101320.16;10500028;28;20042;-83
2023/08/07 07:27:22;;;;;;;0.63;0.60;;;;;;;20.56;100.00;101323.44;10504969;28;20055;-85
2023/08/07 07:32:25;;;;;;;0.10;0.10;;;;;;;20.46;100.00;101327.00;10501299;28;20052;-84
2023/08/07 07:37:27;;;;;;;0.30;0.10;;;;;;;20.63;100.00;101328.63;10509359;28;20044;-84
2023/08/07 07:42:29;;;;;;;0.52;0.35;;;;;;;21.40;100.00;101338.31;10515122;28;20055;-84
2023/08/07 07:47:30;;;;;;;0.08;0.08;;;;;;;21.82;100.00;101341.28;10501437;28;20057;-84
2023/08/07 07:52:32;;;;;;;0.00;0.00;;;;;;;21.78;100.00;101349.22;10513649;28;20048;-84
2023/08/07 07:57:34;;;;;;;0.03;0.03;;;;;;;22.77;100.00;101345.06;10509969;28;20059;-83
2023/08/07 08:02:36;;;;;;;0.08;0.08;;;;;;;21.85;100.00;101358.72;10531614;28;20506;-84
2023/08/07 08:07:40;;;;;;;0.05;0.05;;;;;;;21.87;100.00;101370.94;10497307;28;20140;-83
2023/08/07 08:12:42;;;;;;;0.22;0.22;;;;;;;21.82;100.00;101371.88;10494751;28;20051;-83
2023/08/07 08:17:43;;;;;;;0.40;0.40;;;;;;;21.89;100.00;101372.66;10494671;28;20052;-84
2023/08/07 08:22:46;;;;;;;0.13;0.13;;;;;;;22.13;100.00;101382.81;10492104;28;20051;-83
2023/08/07 08:27:47;;;;;;;0.00;0.00;;;;;;;21.82;100.00;101388.50;10494899;28;20048;-83
2023/08/07 08:32:49;;;;;;;1.50;0.60;;;;;;;22.66;100.00;101382.03;10530827;28;20491;-83
2023/08/07 08:37:51;;;;;;;0.10;0.10;;;;;;;22.81;100.00;101387.03;10512896;28;20074;-82
2023/08/07 08:42:57;;;;;;;1.48;0.73;;;;;;;22.57;100.00;101390.06;10501956;28;20487;-82
2023/08/07 08:48:02;;;;;;;0.00;0.00;;;;;;;22.59;100.00;101396.16;10497150;28;20372;-82
2023/08/07 08:53:04;;;;;;;0.73;0.70;;;;;;;22.54;100.00;101397.97;10502762;28;20498;-81
2023/08/07 08:58:06;;;;;;;4.07;0.10;;;;;;;23.10;100.00;101398.75;10499305;28;20462;-82
2023/08/07 09:03:08;;;;;;;0.10;0.10;;;;;;;23.38;100.00;101393.00;10495689;28;20044;-83
2023/08/07 09:08:10;;;;;;;0.10;0.10;;;;;;;22.88;100.00;101408.78;10498809;28;20426;-82
2023/08/07 09:13:17;;;;;;;0.73;0.30;;;;;;;22.70;100.00;101419.59;10528075;28;20038;-81
2023/08/07 09:18:21;;;;;;;2.40;0.35;;;;;;;22.93;100.00;101421.84;10525753;28;20047;-80
2023/08/07 09:23:24;;;;;;;0.00;0.00;;;;;;;23.60;100.00;101429.38;10510297;28;20042;-80
2023/08/07 09:28:29;;;;;;;0.17;0.17;;;;;;;24.11;100.00;101419.56;10509842;28;20051;-80
2023/08/07 09:33:31;;;;;;;0.00;0.00;;;;;;;23.37;100.00;101421.94;10516500;28;20072;-81
2023/08/07 09:38:33;;;;;;;0.25;0.25;;;;;;;24.10;100.00;101417.81;10517609;28;20062;-80
2023/08/07 09:43:36;;;;;;;0.28;0.20;;;;;;;24.03;100.00;101423.22;10518090;28;20054;-80
2023/08/07 09:48:43;;;;;;;0.00;0.00;;;;;;;24.00;100.00;101423.31;10532669;28;20041;-80
2023/08/07 09:53:46;;;;;;;0.30;0.20;;;;;;;23.39;100.00;101436.78;10518200;28;20127;-81
2023/08/07 09:58:49;;;;;;;0.15;0.03;;;;;;;22.60;100.00;101438.13;10517241;28;20048;-80
2023/08/07 10:03:51;;;;;;;0.00;0.00;;;;;;;22.94;100.00;101455.94;10517229;28;20052;-80
2023/08/07 10:08:54;;;;;;;0.13;0.13;;;;;;;22.58;100.00;101468.78;10515285;28;20427;-80
2023/08/07 10:13:57;;;;;;;0.22;0.17;;;;;;;24.56;100.00;101469.41;10514627;28;20044;-81
2023/08/07 10:18:59;;;;;;;0.17;0.17;;;;;;;23.87;100.00;101471.78;10512206;28;20040;-80
2023/08/07 10:24:03;;;;;;;0.00;0.00;;;;;;;23.74;100.00;101464.16;10516400;28;20130;-81
2023/08/07 10:29:10;;;;;;;0.13;0.13;;;;;;;24.23;100.00;101464.06;10512507;28;20059;-79
2023/08/07 10:34:12;;;;;;;4.40;0.50;;;;;;;23.63;100.00;101481.03;10533503;28;20036;-80
2023/08/07 10:39:15;;;;;;;0.73;0.43;;;;;;;23.61;100.00;101499.50;10527869;28;20055;-80
2023/08/07 10:44:19;;;;;;;0.25;0.15;;;;;;;24.21;100.00;101479.00;10496866;28;20047;-81
2023/08/07 10:49:33;;;;;;;0.00;0.00;;;;;;;25.12;100.00;101486.56;10515038;28;20047;-80
2023/08/07 10:54:42;;;;;;;0.13;0.13;;;;;;;24.94;100.00;101479.97;10519219;28;20572;-79
2023/08/07 10:59:48;;;;;;;;;;;;;;;25.19;100.00;101481.06;10515005;28;20056;-80
2023/08/07 11:04:52;;;;;;;0.40;0.38;;;;;;;23.73;100.00;101499.25;10501174;28;20377;-80
2023/08/07 11:09:55;;;;;;;1.38;0.47;;;;;;;24.04;100.00;101493.38;10501794;28;20048;-79
2023/08/07 11:14:57;;;;;;;0.00;0.00;;;;;;;25.39;100.00;101507.84;10513164;28;20049;-79
2023/08/07 11:19:59;;;;;;;0.00;0.00;;;;;;;24.91;100.00;101504.63;10514994;28;20047;-79
2023/08/07 11:25:01;;;;;;;0.00;0.00;;;;;;;25.54;100.00;101510.06;10516802;28;20051;-80
2023/08/07 11:30:04;;;;;;;0.10;0.10;;;;;;;24.65;100.00;101506.09;10510911;28;20058;-79
2023/08/07 11:35:06;;;;;;;0.60;0.60;;;;;;;25.15;100.00;101497.00;10525457;28;20055;-80
2023/08/07 11:40:09;;;;;;;0.05;0.05;;;;;;;24.93;100.00;101505.44;10512293;28;20032;-80
2023/08/07 11:45:10;;;;;;;0.05;0.05;;;;;;;23.61;100.00;101528.44;10520255;28;20056;-79
2023/08/07 11:50:12;;;;;;;0.00;0.00;;;;;;;24.79;100.00;101518.97;10504527;28;20062;-80
2023/08/07 11:55:14;;;;;;;0.22;0.20;;;;;;;25.24;100.00;101504.69;10519359;28;20051;-79
2023/08/07 12:00:16;;;;;;;0.45;0.20;;;;;;;25.24;100.00;101506.47;10502275;28;20050;-79
2023/08/07 12:05:18;;;;;;;0.08;0.08;;;;;;;24.70;100.00;101503.38;10513128;28;20048;-78
2023/08/07 12:10:19;;;;;;;0.00;0.00;;;;;;;25.55;100.00;101503.91;10499429;28;20532;-79
2023/08/07 12:15:21;;;;;;;1.00;0.10;;;;;;;24.12;100.00;101516.06;10517530;28;20604;-78
2023/08/07 12:20:22;;;;;;;0.00;0.00;;;;;;;24.50;100.00;101511.72;10509022;28;20040;-78
2023/08/07 12:25:24;;;;;;;0.43;0.22;;;;;;;24.60;100.00;101520.25;10512291;28;20068;-79
2023/08/07 12:30:26;;;;;;;0.28;0.00;;;;;;;24.39;100.00;101525.97;10500374;28;20521;-80
2023/08/07 12:35:28;;;;;;;0.10;0.10;;;;;;;25.44;100.00;101525.28;10505821;28;20048;-79
2023/08/07 12:40:30;;;;;;;0.20;0.03;;;;;;;25.08;100.00;101542.88;10511237;28;20040;-78
2023/08/07 12:45:35;;;;;;;0.10;0.10;;;;;;;23.91;100.00;101547.16;10517474;28;20148;-78
2023/08/07 12:50:40;;;;;;;0.00;0.00;;;;;;;23.61;100.00;101544.22;10504120;28;20057;-79
2023/08/07 12:55:41;;;;;;;0.10;0.00;;;;;;;24.98;100.00;101529.06;10515884;28;20131;-79
2023/08/07 13:00:43;;;;;;;0.00;0.00;;;;;;;24.29;100.00;101540.25;10483286;28;20044;-78
2023/08/07 13:05:45;;;;;;;5.18;0.80;;;;;;;24.97;100.00;101537.88;10499155;28;20803;-78
2023/08/07 13:10:46;;;;;;;1.35;0.47;;;;;;;24.32;100.00;101549.84;10499687;28;20048;-78
2023/08/07 13:15:50;;;;;;;4.85;0.10;;;;;;;24.96;100.00;101546.69;10500360;28;20449;-78
2023/08/07 13:20:56;;;;;;;0.15;0.15;;;;;;;25.24;100.00;101532.84;10493848;28;20161;-78
2023/08/07 13:25:58;;;;;;;0.20;0.20;;;;;;;24.89;100.00;101542.47;10499959;28;20785;-79
2023/08/07 13:30:59;;;;;;;0.38;0.35;;;;;;;24.91;100.00;101538.88;10514273;28;20445;-77
2023/08/07 13:36:01;;;;;;;0.10;0.10;;;;;;;23.97;100.00;101554.94;10515961;28;20513;-79
2023/08/07 13:41:03;;;;;;;2.13;0.20;;;;;;;24.36;100.00;101551.50;10512729;28;20064;-78
2023/08/07 13:46:05;;;;;;;0.00;0.00;;;;;;;24.65;100.00;101542.97;10516613;28;20048;-78
2023/08/07 13:51:08;;;;;;;1.88;0.22;;;;;;;25.41;100.00;101542.97;10485832;28;20036;-78
2023/08/07 13:56:12;;;;;;;0.30;0.10;;;;;;;25.51;100.00;101539.16;10498628;28;20127;-78
2023/08/07 14:01:14;;;;;;;0.00;0.00;;;;;;;25.46;100.00;101551.63;10498596;28;20123;-77
2023/08/07 14:06:15;;;;;;;0.20;0.03;;;;;;;24.58;100.00;101546.66;10514305;28;20083;-78
2023/08/07 14:11:19;;;;;;;0.13;0.10;;;;;;;24.57;100.00;101563.34;10520516;28;20036;-78
2023/08/07 14:16:22;;;;;;;1.55;0.38;;;;;;;25.49;100.00;101564.75;10517105;28;20119;-79
2023/08/07 14:21:24;;;;;;;0.15;0.08;;;;;;;25.25;100.00;101564.44;10504984;28;20476;-78
2023/08/07 14:26:26;;;;;;;0.43;0.20;;;;;;;24.90;100.00;101568.78;10538848;28;20752;-77
2023/08/07 14:31:28;;;;;;;0.15;0.08;;;;;;;25.35;100.00;101576.44;10497417;28;20048;-79
2023/08/07 14:36:29;;;;;;;0.43;0.13;;;;;;;25.76;100.00;101575.44;10516433;28;20399;-77
2023/08/07 14:41:31;;;;;;;0.03;0.03;;;;;;;24.46;98.80;101584.66;10523310;28;20028;-77
2023/08/07 14:46:32;;;;;;;0.00;0.00;;;;;;;24.82;100.00;101581.28;10519809;28;20055;-78
2023/08/07 14:51:34;;;;;;;0.32;0.20;;;;;;;24.57;100.00;101571.25;10519673;28;20048;-77
2023/08/07 14:56:36;;;;;;;0.17;0.00;;;;;;;24.03;100.00;101601.34;10514653;28;20054;-77
2023/08/07 15:01:37;;;;;;;0.00;0.00;;;;;;;23.68;100.00;101606.31;10530820;28;20036;-77
2023/08/07 15:06:41;;;;;;;0.00;0.00;;;;;;;23.47;100.00;101604.06;10516930;28;20056;-77
2023/08/07 15:11:43;;;;;;;0.52;0.10;;;;;;;24.02;100.00;101605.72;10506584;28;20066;-78
2023/08/07 15:16:45;;;;;;;1.95;0.90;;;;;;;23.76;100.00;101614.94;10512895;28;20395;-77
2023/08/07 15:21:46;;;;;;;0.10;0.10;;;;;;;23.86;100.00;101615.66;10492291;28;20040;-79
2023/08/07 15:26:48;;;;;;;0.10;0.03;;;;;;;23.81;100.00;101616.63;10493217;28;20406;-79
2023/08/07 15:31:50;;;;;;;0.00;0.00;;;;;;;24.44;100.00;101611.94;10509852;28;20399;-79
2023/08/07 15:36:51;;;;;;;0.00;0.00;;;;;;;23.73;100.00;101625.50;10513894;28;20291;-78
2023/08/07 15:41:53;;;;;;;0.20;0.10;;;;;;;24.61;100.00;101609.78;10530146;28;20048;-79
2023/08/07 15:46:55;;;;;;;0.15;0.15;;;;;;;24.17;100.00;101625.63;10494681;28;20044;-78
2023/08/07 15:51:57;;;;;;;0.00;0.00;;;;;;;23.72;100.00;101623.78;10493960;28;20123;-79
2023/08/07 15:56:58;;;;;;;0.00;0.00;;;;;;;23.82;98.96;101623.63;10495567;28;20056;-78
2023/08/07 16:02:01;;;;;;;0.00;0.00;;;;;;;24.23;99.77;101632.53;10494951;28;20052;-79
2023/08/07 16:07:03;;;;;;;0.00;0.00;;;;;;;23.95;100.00;101630.41;10512281;28;20052;-78
2023/08/07 16:12:05;;;;;;;0.00;0.00;;;;;;;23.85;100.00;101631.47;10508233;28;20404;-79
2023/08/07 16:17:07;;;;;;;0.05;0.03;;;;;;;24.08;100.00;101631.94;10510415;28;20127;-79
2023/08/07 16:22:08;;;;;;;0.00;0.00;;;;;;;23.45;100.00;101633.88;10490523;28;20070;-79
2023/08/07 16:27:10;;;;;;;0.00;0.00;;;;;;;23.54;100.00;101634.63;10500583;28;20698;-78
2023/08/07 16:32:12;;;;;;;0.00;0.00;;;;;;;24.04;100.00;101630.25;10496694;28;20089;-79
2023/08/07 16:37:14;;;;;;;0.00;0.00;;;;;;;24.32;100.00;101632.34;10528552;28;20071;-79
2023/08/07 16:42:15;;;;;;;1.23;1.13;;;;;;;24.28;100.00;101614.88;10505969;28;20032;-79
2023/08/07 16:47:17;;;;;;;0.28;0.17;;;;;;;23.63;100.00;101631.84;10507010;28;20042;-79
2023/08/07 16:52:19;;;;;;;0.10;0.10;;;;;;;23.26;100.00;101625.44;10500693;28;20032;-79
2023/08/07 16:57:21;;;;;;;0.00;0.00;;;;;;;23.82;100.00;101628.88;10491465;28;20052;-79
2023/08/07 17:02:24;;;;;;;0.28;0.28;;;;;;;23.85;100.00;101620.94;10494222;28;20632;-79
2023/08/07 17:07:26;;;;;;;0.90;0.10;;;;;;;23.64;100.00;101620.44;10528964;28;20028;-79
2023/08/07 17:12:27;;;;;;;0.30;0.20;;;;;;;24.80;100.00;101609.44;10507410;28;20495;-79
2023/08/07 17:17:29;;;;;;;0.03;0.00;;;;;;;24.31;100.00;101617.44;10524857;28;20044;-79
2023/08/07 17:22:31;;;;;;;0.10;0.10;;;;;;;23.88;100.00;101615.59;10493279;28;20832;-79
2023/08/07 17:27:32;;;;;;;0.10;0.10;;;;;;;24.08;100.00;101616.16;10528073;28;20048;-79
2023/08/07 17:32:36;;;;;;;0.00;0.00;;;;;;;23.12;100.00;101612.44;10493211;28;20056;-79
2023/08/07 17:37:38;;;;;;;0.20;0.13;;;;;;;23.64;100.00;101615.19;10493296;28;20052;-78
2023/08/07 17:42:40;;;;;;;0.00;0.00;;;;;;;23.67;100.00;101615.09;10492790;28;20046;-79
2023/08/07 17:47:42;;;;;;;0.00;0.00;;;;;;;23.09;100.00;101604.63;10509535;28;20055;-79
2023/08/07 17:52:43;;;;;;;0.20;0.00;;;;;;;23.27;100.00;101605.28;10512970;28;20051;-79
2023/08/07 17:57:45;;;;;;;0.00;0.00;;;;;;;24.23;100.00;101600.97;10507792;28;20048;-79
2023/08/07 18:02:49;;;;;;;0.10;0.05;;;;;;;24.18;100.00;101595.78;10516580;28;20040;-79
2023/08/07 18:07:50;;;;;;;0.30;0.20;;;;;;;23.28;100.00;101588.59;10500445;28;20048;-79
2023/08/07 18:12:52;;;;;;;0.20;0.05;;;;;;;23.58;100.00;101584.59;10516245;28;20499;-79
2023/08/07 18:17:54;;;;;;;0.20;0.13;;;;;;;23.15;100.00;101590.53;10516270;28;20040;-79
2023/08/07 18:22:55;;;;;;;0.65;0.30;;;;;;;22.69;100.00;101589.44;10507050;28;20467;-79
2023/08/07 18:27:57;;;;;;;1.38;0.40;;;;;;;22.81;100.00;101585.78;10504731;28;20120;-79
2023/08/07 18:32:59;;;;;;;0.10;0.03;;;;;;;23.01;100.00;101577.59;10529264;28;20046;-78
2023/08/07 18:38:00;;;;;;;0.47;0.47;;;;;;;22.89;100.00;101585.69;10498086;28;20132;-79
2023/08/07 18:43:02;;;;;;;0.00;0.00;;;;;;;22.63;100.00;101593.03;10504408;28;20119;-79
2023/08/07 18:48:04;;;;;;;0.00;0.00;;;;;;;22.70;100.00;101590.31;10510769;28;21240;-79
2023/08/07 18:53:05;;;;;;;0.00;0.00;;;;;;;22.09;100.00;101585.78;10513980;28;20131;-79
2023/08/07 18:58:07;;;;;;;0.08;0.08;;;;;;;22.40;100.00;101593.31;10498575;28;20040;-79
2023/08/07 19:03:09;;;;;;;0.20;0.20;;;;;;;21.74;100.00;101589.66;10496416;28;20050;-79
2023/08/07 19:08:11;;;;;;;0.13;0.10;;;;;;;21.55;100.00;101591.53;10531042;28;20457;-79
2023/08/07 19:13:13;;;;;;;0.43;0.10;;;;;;;21.61;100.00;101583.66;10484024;28;20029;-79
2023/08/07 19:18:14;;;;;;;0.55;0.50;;;;;;;21.33;100.00;101577.75;10485132;28;20087;-79
2023/08/07 19:23:16;;;;;;;0.20;0.10;;;;;;;21.58;100.00;101580.19;10510076;28;20048;-78
2023/08/07 19:28:17;;;;;;;2.20;0.52;;;;;;;21.59;100.00;101576.69;10504015;28;20163;-79
2023/08/07 19:33:19;;;;;;;0.45;0.15;;;;;;;21.62;100.00;101584.53;10525487;28;20136;-79
2023/08/07 19:38:21;;;;;;;0.22;0.17;;;;;;;21.15;100.00;101590.13;10523124;28;20135;-79
2023/08/07 19:43:23;;;;;;;0.10;0.10;;;;;;;21.26;100.00;101583.94;10507917;28;20050;-79
2023/08/07 19:48:25;;;;;;;0.00;0.00;;;;;;;21.24;100.00;101579.56;10510256;28;20063;-78
2023/08/07 19:53:26;;;;;;;0.60;0.40;;;;;;;21.27;100.00;101583.91;10495799;28;20127;-79
2023/08/07 19:58:28;;;;;;;0.13;0.13;;;;;;;21.47;100.00;101591.63;10497639;28;20060;-79
2023/08/07 20:03:29;;;;;;;0.00;0.00;;;;;;;21.63;100.00;101583.66;10492371;28;20040;-79
2023/08/07 20:08:31;;;;;;;0.10;0.10;;;;;;;21.68;100.00;101589.72;10488533;28;20048;-79
2023/08/07 20:13:33;;;;;;;0.00;0.00;;;;;;;21.47;100.00;101577.63;10507493;28;20051;-79
2023/08/07 20:18:35;;;;;;;0.00;0.00;;;;;;;21.24;100.00;101569.09;10490079;28;20056;-78
2023/08/07 20:23:36;;;;;;;0.00;0.00;;;;;;;20.99;100.00;101572.75;10506010;28;20055;-79
2023/08/07 20:28:38;;;;;;;0.20;0.20;;;;;;;21.10;100.00;101559.59;10509595;28;20047;-79
2023/08/07 20:33:40;;;;;;;0.00;0.00;;;;;;;20.95;100.00;101555.34;10499434;28;20561;-79
2023/08/07 20:38:41;;;;;;;0.00;0.00;;;;;;;21.14;100.00;101551.69;10495394;28;20794;-79
2023/08/07 20:43:43;;;;;;;0.00;0.00;;;;;;;20.86;100.00;101545.78;10503790;28;20040;-79
2023/08/07 20:48:46;;;;;;;0.10;0.10;;;;;;;20.94;100.00;101548.34;10495565;28;20048;-79
2023/08/07 20:53:48;;;;;;;0.20;0.10;;;;;;;20.53;100.00;101543.31;10496367;28;20052;-79
2023/08/07 20:58:50;;;;;;;0.50;0.17;;;;;;;20.47;100.00;101535.50;10523472;28;20401;-79
2023/08/07 21:03:51;;;;;;;0.28;0.28;;;;;;;20.74;100.00;101542.38;10495503;28;20040;-79
2023/08/07 21:08:53;;;;;;;0.00;0.00;;;;;;;20.63;100.00;101536.28;10526815;28;20047;-79
2023/08/07 21:13:55;;;;;;;0.35;0.17;;;;;;;20.01;100.00;101539.19;10512192;28;20491;-79
2023/08/07 21:18:56;;;;;;;0.10;0.10;;;;;;;19.89;100.00;101541.84;10511480;28;20055;-79
2023/08/07 21:23:58;;;;;;;0.30;0.20;;;;;;;20.67;100.00;101524.03;10495307;28;20163;-78
2023/08/07 21:29:01;;;;;;;0.17;0.17;;;;;;;20.56;100.00;101511.03;10518117;28;20431;-79
2023/08/07 21:34:03;;;;;;;0.05;0.05;;;;;;;20.74;100.00;101512.69;10502192;28;20540;-79
2023/08/07 21:39:04;;;;;;;0.00;0.00;;;;;;;20.63;100.00;101506.63;10514266;28;20059;-79
2023/08/07 21:44:07;;;;;;;0.30;0.10;;;;;;;20.64;100.00;101509.22;10535921;28;20372;-79
2023/08/07 21:49:09;;;;;;;0.30;0.10;;;;;;;20.49;100.00;101498.84;10503040;28;20418;-79
2023/08/07 21:54:10;;;;;;;2.92;0.55;;;;;;;20.39;100.00;101493.69;10524730;28;20040;-78
2023/08/07 21:59:12;;;;;;;0.05;0.00;;;;;;;20.41;100.00;101489.28;10527207;28;20039;-78
2023/08/07 22:04:13;;;;;;;0.10;0.10;;;;;;;20.87;100.00;101477.69;10508161;28;20070;-79
2023/08/07 22:09:15;;;;;;;0.30;0.30;;;;;;;21.32;100.00;101476.44;10516434;28;20056;-78
2023/08/07 22:14:17;;;;;;;0.10;0.10;;;;;;;20.97;100.00;101480.22;10520125;28;20036;-79
2023/08/07 22:19:19;;;;;;;0.20;0.20;;;;;;;21.13;100.00;101473.97;10505515;28;20032;-79
2023/08/07 22:24:21;;;;;;;0.00;0.00;;;;;;;20.90;100.00;101480.28;10523672;28;20040;-78
2023/08/07 22:29:22;;;;;;;3.55;0.55;;;;;;;20.86;100.00;101472.44;10494564;28;20410;-79
2023/08/07 22:34:24;;;;;;;0.20;0.10;;;;;;;20.55;100.00;101470.91;10523714;28;20086;-78
2023/08/07 22:39:26;;;;;;;0.70;0.30;;;;;;;20.42;100.00;101469.25;10516429;28;20044;-78
2023/08/07 22:44:28;;;;;;;0.20;0.20;;;;;;;21.04;100.00;101471.44;10510391;28;20046;-78
2023/08/07 22:49:29;;;;;;;0.30;0.30;;;;;;;21.08;100.00;101454.81;10527559;28;20040;-78
2023/08/07 22:54:31;;;;;;;0.40;0.35;;;;;;;21.20;100.00;101461.69;10519117;28;20406;-78